Flight Number: AVA2060 Duration: 1:45
Departure: Houston Intl airport (KIAH) at 01:00 Distance: 646.497 Nm
Arrival: Albuquerque Intl Airport (KABQ) at 02:45 Equipment: B737

Weather Information
HOUSTON INTERCONTINENTAL, TX, United States (KIAH) 30-00N 095-22W 36M Apr 14, 2024 - 09:53 PM EDT / 2024.04.15 0153 UTC
Wind: from the SSE (160 degrees) at 15 MPH (13 KT) gusting to 23 MPH (20 KT):0
Visibility: 10 mile(s):0
Sky conditions: mostly cloudy Temperature: 73.9 F (23.3 C) Dew Point: 63.0 F (17.2 C) Relative Humidity: 68% Pressure (altimeter): 29.97 in. Hg (1014 hPa)
ob: KIAH 150153Z 16013G20KT 10SM BKN032 BKN250 23/17 A2997 RMK AO2 SLP149 T02330172 cycle: 2
Sunrise: 11:55 Sunset: 00:46 (UTC)

ALBUQUERQUE INTERNATIONAL AIRPORT, NM, United States (KABQ) 35-02N 106-36W 1618M Apr 14, 2024 - 09:52 PM EDT / 2024.04.15 0152 UTC
Wind: from the S (170 degrees) at 16 MPH (14 KT):0
Visibility: 10 mile(s):0
Sky conditions: mostly clear Temperature: 71.1 F (21.7 C) Dew Point: 8.1 F (-13.3 C) Relative Humidity: 8% Pressure (altimeter): 29.94 in. Hg (1013 hPa)
ob: KABQ 150152Z 17014KT 10SM FEW250 22/M13 A2994 RMK AO2 SLP077 T02171133 cycle: 2
Sunrise: 12:35 Sunset: 01:36 (UTC)

TAF:2024/04/15 02:36 TAF AMD KABQ 150133Z 1502/1524 17010KT P6SM SCT250 FM150600 VRB06KT P6SM SCT250 FM151500 25013G20KT P6SM SKC FM151700 27016G25KT P6SM SCT250 FM151900 27023G32KT P6SM SCT250 FM152200 27030G40KT P6SM SCT250

This route has never been flown.

Route map